Time;durP1;ratioP1;P1;durP2;ratioP2;P2;SDS_P1;SDS_P2;PMS_P1;PMS_P2;Temp;Humidity;BMP_temperature;BMP_pressure;BME280_temperature;BME280_humidity;BME280_pressure;Samples;Min_cycle;Max_cycle;Signal;HPM_P1;HPM_P2
2021/11/30 00:01:16;;;;;;;12.45;9.25;;;6.00;72.10;;;;;;5058277;28;20417;-34
2021/11/30 00:03:42;;;;;;;11.35;8.57;;;5.90;72.10;;;;;;5057966;28;20033;-33
2021/11/30 00:06:10;;;;;;;10.73;8.70;;;6.00;72.50;;;;;;5058027;28;20129;-38
2021/11/30 00:08:37;;;;;;;11.07;8.57;;;5.90;72.40;;;;;;5057709;28;20021;-33
2021/11/30 00:11:05;;;;;;;13.00;7.88;;;5.90;72.70;;;;;;5057871;28;20068;-46
2021/11/30 00:13:32;;;;;;;13.18;8.63;;;5.90;72.30;;;;;;5057866;28;20025;-46
2021/11/30 00:15:58;;;;;;;11.45;8.73;;;5.90;72.40;;;;;;5056755;28;20025;-34
2021/11/30 00:18:25;;;;;;;11.55;7.72;;;6.00;72.20;;;;;;5057923;28;20035;-33
2021/11/30 00:20:52;;;;;;;11.07;8.32;;;5.90;71.80;;;;;;5058012;28;20025;-34
2021/11/30 00:23:19;;;;;;;11.85;8.10;;;5.90;71.50;;;;;;5057675;28;20055;-46
2021/11/30 00:25:45;;;;;;;12.50;8.60;;;5.90;71.50;;;;;;5056488;28;20079;-35
2021/11/30 00:28:11;;;;;;;11.60;7.88;;;5.90;71.40;;;;;;5057626;28;20052;-46
2021/11/30 00:30:38;;;;;;;10.60;7.55;;;5.90;71.20;;;;;;5057864;28;20090;-35
2021/11/30 00:33:05;;;;;;;10.55;7.15;;;5.90;71.40;;;;;;5057655;28;20317;-45
2021/11/30 00:35:32;;;;;;;10.85;6.97;;;5.80;71.10;;;;;;5057788;28;20108;-46
2021/11/30 00:37:59;;;;;;;10.75;7.25;;;5.80;70.90;;;;;;5057463;28;20028;-33
2021/11/30 00:40:25;;;;;;;9.60;6.88;;;5.80;70.90;;;;;;5057695;28;20090;-46
2021/11/30 00:42:52;;;;;;;10.35;6.95;;;5.80;70.70;;;;;;5057372;28;20524;-46
2021/11/30 00:45:19;;;;;;;9.73;6.80;;;5.80;70.40;;;;;;5057129;28;20179;-33
2021/11/30 00:47:50;;;;;;;13.90;8.93;;;5.80;70.80;;;;;;5057535;28;20024;-48
2021/11/30 00:50:17;;;;;;;10.90;7.15;;;5.80;70.80;;;;;;5057443;28;20033;-33
2021/11/30 00:52:44;;;;;;;9.18;6.18;;;5.80;71.00;;;;;;5057452;28;20181;-34
2021/11/30 00:55:10;;;;;;;10.07;6.93;;;5.90;71.00;;;;;;5057405;28;20033;-45
2021/11/30 00:57:41;;;;;;;8.48;5.90;;;5.90;70.60;;;;;;5055884;28;20073;-46
2021/11/30 01:00:11;;;;;;;9.93;6.10;;;5.90;70.10;;;;;;5057309;28;20044;-33
2021/11/30 01:02:37;;;;;;;9.43;5.97;;;5.90;69.90;;;;;;5057045;28;20032;-35
2021/11/30 01:05:05;;;;;;;10.00;5.95;;;5.90;69.80;;;;;;5057288;28;20266;-46
2021/11/30 01:07:33;;;;;;;15.85;5.60;;;5.90;69.80;;;;;;5056881;28;20021;-33
2021/11/30 01:09:59;;;;;;;8.27;5.22;;;5.80;68.90;;;;;;5056619;28;20376;-36
2021/11/30 01:12:24;;;;;;;9.63;5.78;;;5.80;69.00;;;;;;5056637;28;20024;-33
2021/11/30 01:14:50;;;;;;;8.18;5.40;;;5.80;68.90;;;;;;5057028;28;20029;-48
2021/11/30 01:17:16;;;;;;;8.60;5.18;;;5.80;68.40;;;;;;5057013;28;20105;-33
2021/11/30 01:19:42;;;;;;;8.30;5.10;;;5.80;68.30;;;;;;5056880;28;20089;-46
2021/11/30 01:22:07;;;;;;;7.72;5.10;;;5.80;68.50;;;;;;5056535;28;20025;-33
2021/11/30 01:24:33;;;;;;;6.88;4.63;;;5.80;68.30;;;;;;5056792;28;20071;-35
2021/11/30 01:26:59;;;;;;;7.53;4.78;;;5.80;68.00;;;;;;5056516;28;20028;-46
2021/11/30 01:29:25;;;;;;;6.22;4.38;;;5.80;67.50;;;;;;5056664;28;20061;-34
2021/11/30 01:31:50;;;;;;;8.05;5.30;;;5.80;67.70;;;;;;5056514;28;20178;-46
2021/11/30 01:34:16;;;;;;;6.65;4.57;;;5.80;67.60;;;;;;5056553;28;20029;-34
2021/11/30 01:36:42;;;;;;;10.55;4.80;;;5.80;67.80;;;;;;5056605;28;20029;-34
2021/11/30 01:39:07;;;;;;;8.48;4.70;;;5.80;67.60;;;;;;5056176;28;20081;-35
2021/11/30 01:41:35;;;;;;;6.97;4.32;;;5.80;67.80;;;;;;5056022;28;20036;-45
2021/11/30 01:44:05;;;;;;;6.60;4.50;;;5.80;67.30;;;;;;5056527;28;20029;-47
2021/11/30 01:49:24;;;;;;;7.50;4.78;;;5.80;66.90;;;;;;5056482;28;20036;-35
2021/11/30 01:51:50;;;;;;;7.78;4.30;;;5.80;67.20;;;;;;5056343;28;20302;-34
2021/11/30 01:54:16;;;;;;;6.38;4.20;;;5.80;66.50;;;;;;5056332;28;20409;-47
2021/11/30 01:56:42;;;;;;;6.35;4.32;;;5.80;66.90;;;;;;5056029;28;20032;-47
2021/11/30 01:59:08;;;;;;;6.38;4.10;;;5.70;66.50;;;;;;5056240;28;20026;-47
2021/11/30 02:01:33;;;;;;;6.03;4.40;;;5.80;66.40;;;;;;5056012;28;20325;-48
2021/11/30 02:04:00;;;;;;;6.28;4.43;;;5.80;66.40;;;;;;5056155;28;20037;-36
2021/11/30 02:06:26;;;;;;;7.70;4.65;;;5.80;66.60;;;;;;5055899;28;20412;-35
2021/11/30 02:08:52;;;;;;;7.03;4.45;;;5.80;66.80;;;;;;5055683;28;20052;-36
2021/11/30 02:11:18;;;;;;;8.13;4.85;;;5.90;66.30;;;;;;5054626;28;20409;-36
2021/11/30 02:13:44;;;;;;;7.25;4.43;;;5.90;66.10;;;;;;5056063;28;20029;-48
2021/11/30 02:16:10;;;;;;;6.38;4.20;;;5.90;66.00;;;;;;5056063;28;20031;-38
2021/11/30 02:18:42;;;;;;;5.93;4.10;;;5.90;66.10;;;;;;5055811;28;20028;-47
2021/11/30 02:21:08;;;;;;;7.53;4.50;;;5.90;65.40;;;;;;5055800;28;20057;-48
2021/11/30 02:26:20;;;;;;;6.50;4.15;;;5.90;65.30;;;;;;5058962;28;20444;-36
2021/11/30 02:28:49;;;;;;;6.00;4.03;;;5.90;65.10;;;;;;5055876;28;20029;-36
2021/11/30 02:31:18;;;;;;;5.72;3.88;;;6.00;65.30;;;;;;5055869;28;20321;-35
2021/11/30 02:33:44;;;;;;;6.07;4.03;;;6.00;65.20;;;;;;5055836;28;20087;-46
2021/11/30 02:36:23;;;;;;;8.02;4.00;;;5.90;65.10;;;;;;5055560;28;20032;-47
2021/11/30 02:38:49;;;;;;;6.32;3.97;;;6.00;65.20;;;;;;5055585;28;20040;-35
2021/11/30 02:41:15;;;;;;;5.55;3.85;;;5.90;64.50;;;;;;5055539;28;20021;-46
2021/11/30 02:43:41;;;;;;;6.45;3.60;;;5.90;64.30;;;;;;5055846;28;20413;-46
2021/11/30 02:46:07;;;;;;;5.60;3.60;;;5.90;64.40;;;;;;5055610;28;20083;-34
2021/11/30 02:48:32;;;;;;;6.40;4.00;;;5.90;64.50;;;;;;5055507;28;20029;-47
2021/11/30 02:51:01;;;;;;;5.35;3.63;;;5.90;64.30;;;;;;5055531;28;20413;-47
2021/11/30 02:53:27;;;;;;;7.88;3.88;;;5.90;64.10;;;;;;5059264;28;20025;-46
2021/11/30 02:55:53;;;;;;;5.78;3.75;;;5.90;64.30;;;;;;5059648;28;20466;-47
2021/11/30 02:58:18;;;;;;;5.55;3.90;;;5.90;64.30;;;;;;5059180;28;20027;-46
2021/11/30 03:00:44;;;;;;;5.95;4.05;;;5.90;64.20;;;;;;5059753;28;20320;-47
2021/11/30 03:03:10;;;;;;;5.97;3.88;;;5.90;64.10;;;;;;5059573;28;20075;-48
2021/11/30 03:05:35;;;;;;;6.13;4.13;;;5.90;64.40;;;;;;5059537;28;20041;-39
2021/11/30 03:08:01;;;;;;;5.97;3.90;;;5.90;64.50;;;;;;5059200;28;20029;-47
2021/11/30 03:10:28;;;;;;;6.22;3.95;;;5.90;64.40;;;;;;5058761;28;20141;-36
2021/11/30 03:12:54;;;;;;;5.97;4.30;;;6.00;64.30;;;;;;5058195;28;20349;-47
2021/11/30 03:15:23;;;;;;;5.60;3.85;;;6.00;64.20;;;;;;5059341;28;20116;-35
2021/11/30 03:17:49;;;;;;;6.40;4.07;;;5.90;64.30;;;;;;5058909;28;20071;-37
2021/11/30 03:20:16;;;;;;;5.22;3.60;;;6.00;64.70;;;;;;5059278;28;20037;-46
2021/11/30 03:22:42;;;;;;;5.63;4.07;;;6.00;64.40;;;;;;5058804;28;20079;-35
2021/11/30 03:25:10;;;;;;;6.47;4.03;;;6.00;64.40;;;;;;5059064;28;20033;-34
2021/11/30 03:27:36;;;;;;;7.30;3.88;;;6.00;64.20;;;;;;5059069;28;20060;-34
2021/11/30 03:30:08;;;;;;;5.60;3.90;;;6.00;64.50;;;;;;5058994;28;20041;-47
2021/11/30 03:35:07;;;;;;;6.35;4.30;;;6.00;64.10;;;;;;5059012;28;20255;-45
2021/11/30 03:37:33;;;;;;;5.82;3.95;;;6.00;64.20;;;;;;5058651;28;20071;-36
2021/11/30 03:39:59;;;;;;;6.00;4.22;;;6.00;64.30;;;;;;5058698;28;20348;-35
2021/11/30 03:42:25;;;;;;;7.78;4.65;;;6.00;64.10;;;;;;5058318;28;20036;-47
2021/11/30 03:44:51;;;;;;;7.38;4.32;;;6.00;63.90;;;;;;5058621;28;20051;-46
2021/11/30 03:47:17;;;;;;;5.68;3.95;;;6.00;63.80;;;;;;5058397;28;20127;-38
2021/11/30 03:49:43;;;;;;;5.97;4.05;;;6.00;64.00;;;;;;5058513;28;20140;-34
2021/11/30 03:52:10;;;;;;;6.53;4.10;;;6.00;63.90;;;;;;5058147;28;20028;-46
2021/11/30 03:54:36;;;;;;;6.25;3.85;;;6.00;64.10;;;;;;5058439;28;20112;-47
2021/11/30 03:57:04;;;;;;;6.47;4.07;;;6.00;64.10;;;;;;5058486;28;20290;-34
2021/11/30 03:59:29;;;;;;;6.32;4.38;;;6.00;64.00;;;;;;5058205;28;20041;-36
2021/11/30 04:01:55;;;;;;;7.00;4.45;;;6.00;63.90;;;;;;5058203;28;20055;-47
2021/11/30 04:04:23;;;;;;;7.40;4.38;;;6.00;63.90;;;;;;5057914;28;20033;-47
2021/11/30 04:06:54;;;;;;;6.32;4.50;;;6.00;64.00;;;;;;5058066;28;20060;-46
2021/11/30 04:09:21;;;;;;;16.08;8.05;;;6.00;64.00;;;;;;5057775;28;20056;-47
2021/11/30 04:11:48;;;;;;;6.88;4.68;;;6.00;64.40;;;;;;5057990;28;20108;-47
2021/11/30 04:14:15;;;;;;;6.53;4.32;;;6.00;63.70;;;;;;5058138;28;20365;-37
2021/11/30 04:16:41;;;;;;;7.25;4.63;;;6.00;63.90;;;;;;5057771;28;20075;-47
2021/11/30 04:19:07;;;;;;;10.52;5.68;;;6.00;64.10;;;;;;5057980;28;20035;-34
2021/11/30 04:21:33;;;;;;;7.32;4.57;;;6.00;64.50;;;;;;5057703;28;20115;-37
2021/11/30 04:23:59;;;;;;;7.45;4.80;;;6.10;64.00;;;;;;5057788;28;20087;-46
2021/11/30 04:26:25;;;;;;;7.30;4.47;;;6.00;64.20;;;;;;5057699;28;20031;-34
2021/11/30 04:28:51;;;;;;;10.00;6.90;;;6.00;63.90;;;;;;5057851;28;20025;-46
2021/11/30 04:31:16;;;;;;;7.78;4.90;;;6.00;63.90;;;;;;5057426;28;20045;-45
2021/11/30 04:33:42;;;;;;;7.75;4.95;;;6.00;64.00;;;;;;5057732;28;20032;-46
2021/11/30 04:36:08;;;;;;;8.55;4.70;;;6.00;63.70;;;;;;5057403;28;20025;-36
2021/11/30 04:38:35;;;;;;;8.13;5.30;;;6.00;63.70;;;;;;5057515;28;20025;-35
2021/11/30 04:41:02;;;;;;;8.73;4.82;;;6.00;63.70;;;;;;5057732;28;20029;-46
2021/11/30 04:43:34;;;;;;;6.82;4.45;;;6.00;63.50;;;;;;5057331;28;20024;-34
2021/11/30 04:46:04;;;;;;;7.88;4.70;;;6.00;63.70;;;;;;5057233;28;20044;-35
2021/11/30 04:48:32;;;;;;;6.70;4.57;;;6.00;63.80;;;;;;5057099;28;20049;-40
2021/11/30 04:51:00;;;;;;;7.95;4.85;;;6.00;63.30;;;;;;5057126;28;20045;-35
2021/11/30 04:53:28;;;;;;;7.93;4.95;;;6.00;63.40;;;;;;5057044;28;20029;-35
2021/11/30 04:55:53;;;;;;;6.13;4.38;;;6.00;63.30;;;;;;5057097;28;20033;-33
2021/11/30 04:58:20;;;;;;;11.07;6.47;;;6.00;63.00;;;;;;5057321;28;20024;-35
2021/11/30 05:00:47;;;;;;;7.35;4.65;;;6.00;63.00;;;;;;5057020;28;20079;-46
2021/11/30 05:03:13;;;;;;;7.95;4.80;;;6.00;63.10;;;;;;5057223;28;20052;-35
2021/11/30 05:05:40;;;;;;;8.23;4.90;;;5.90;63.00;;;;;;5057290;28;20035;-35
2021/11/30 05:08:07;;;;;;;6.93;4.45;;;5.90;62.70;;;;;;5056752;28;20320;-35
2021/11/30 05:10:33;;;;;;;8.68;4.05;;;5.90;62.40;;;;;;5056475;28;20044;-34
2021/11/30 05:13:01;;;;;;;5.68;4.07;;;5.80;62.50;;;;;;5056984;28;20037;-32
2021/11/30 05:15:28;;;;;;;5.80;4.22;;;5.80;62.80;;;;;;5056398;28;20297;-32
2021/11/30 05:17:53;;;;;;;8.30;5.22;;;5.80;62.60;;;;;;5056760;28;20021;-31
2021/11/30 05:20:19;;;;;;;6.75;3.95;;;5.70;62.60;;;;;;5056984;28;20033;-40
2021/11/30 05:22:45;;;;;;;9.75;4.40;;;5.80;62.80;;;;;;5055805;28;20108;-32
2021/11/30 05:25:11;;;;;;;7.43;4.43;;;5.80;62.80;;;;;;5056765;28;20116;-32
2021/11/30 05:27:41;;;;;;;7.00;4.35;;;5.70;62.50;;;;;;5056267;28;20036;-32
2021/11/30 05:30:14;;;;;;;8.50;4.80;;;5.70;62.70;;;;;;5056275;28;20037;-40
2021/11/30 05:32:43;;;;;;;6.30;3.92;;;5.70;62.90;;;;;;5056632;28;20060;-32
2021/11/30 05:35:10;;;;;;;5.97;3.88;;;5.70;62.30;;;;;;5056635;28;20044;-40
2021/11/30 05:37:36;;;;;;;6.18;4.10;;;5.60;62.10;;;;;;5056176;28;20402;-40
2021/11/30 05:40:03;;;;;;;8.52;4.38;;;5.70;62.70;;;;;;5056508;28;20467;-32
2021/11/30 05:42:29;;;;;;;5.55;3.38;;;5.70;62.80;;;;;;5056038;28;20039;-32
2021/11/30 05:44:55;;;;;;;10.23;4.18;;;5.70;62.40;;;;;;5056320;28;20033;-32
2021/11/30 05:47:21;;;;;;;9.05;5.13;;;5.70;62.40;;;;;;5056365;28;20159;-32
2021/11/30 05:49:47;;;;;;;6.28;4.03;;;5.70;62.40;;;;;;5055928;28;20489;-38
2021/11/30 05:52:12;;;;;;;5.90;3.50;;;5.80;62.20;;;;;;5056303;28;20063;-32
2021/11/30 05:54:39;;;;;;;6.68;4.00;;;5.80;61.90;;;;;;5056366;28;20356;-41
2021/11/30 05:57:11;;;;;;;7.38;3.67;;;5.70;61.90;;;;;;5055808;28;20423;-40
2021/11/30 05:59:40;;;;;;;5.13;3.50;;;5.70;61.80;;;;;;5056018;28;20037;-40
2021/11/30 06:02:08;;;;;;;8.25;3.78;;;5.70;62.00;;;;;;5055676;28;20474;-32
2021/11/30 06:04:34;;;;;;;7.03;4.32;;;5.80;61.70;;;;;;5055776;28;20041;-40
2021/11/30 06:06:59;;;;;;;6.20;3.65;;;5.80;61.80;;;;;;5055996;28;20021;-32
2021/11/30 06:09:26;;;;;;;6.10;3.92;;;5.80;62.00;;;;;;5054557;28;20458;-31
2021/11/30 06:11:52;;;;;;;9.80;4.15;;;5.70;61.70;;;;;;5055661;28;20032;-32
2021/11/30 06:14:18;;;;;;;10.82;4.68;;;5.80;61.80;;;;;;5055422;28;20033;-32
2021/11/30 06:16:43;;;;;;;7.82;4.47;;;5.70;61.60;;;;;;5055621;28;20036;-32
2021/11/30 06:19:11;;;;;;;6.88;4.43;;;5.70;61.80;;;;;;5054587;28;20044;-32
2021/11/30 06:21:38;;;;;;;6.40;3.90;;;5.80;61.80;;;;;;5055866;28;20025;-32
2021/11/30 06:24:04;;;;;;;8.85;4.43;;;5.80;62.00;;;;;;5055687;28;20376;-40
2021/11/30 06:26:30;;;;;;;7.70;4.20;;;5.80;62.00;;;;;;5057704;28;20036;-40
2021/11/30 06:28:55;;;;;;;7.85;4.00;;;5.80;61.80;;;;;;5059693;28;20033;-31
2021/11/30 06:31:21;;;;;;;6.82;4.43;;;5.80;61.60;;;;;;5059317;28;20309;-33
2021/11/30 06:33:47;;;;;;;8.90;4.13;;;5.80;61.70;;;;;;5059590;28;20036;-32
2021/11/30 06:36:13;;;;;;;7.97;4.40;;;5.80;61.70;;;;;;5059405;28;20032;-40
2021/11/30 06:38:39;;;;;;;6.35;4.30;;;5.80;61.80;;;;;;5059395;28;20041;-41
2021/11/30 06:41:04;;;;;;;11.48;4.43;;;5.80;61.60;;;;;;5059356;28;20025;-33
2021/11/30 06:43:30;;;;;;;11.30;6.10;;;5.80;61.70;;;;;;5059121;28;20028;-33
2021/11/30 06:45:56;;;;;;;6.97;4.65;;;5.80;61.90;;;;;;5059318;28;20048;-41
2021/11/30 06:48:22;;;;;;;14.75;4.72;;;5.80;61.60;;;;;;5058406;28;20501;-41
2021/11/30 06:50:48;;;;;;;8.52;4.10;;;5.80;61.50;;;;;;5059191;28;20035;-41
2021/11/30 06:53:14;;;;;;;15.57;5.50;;;5.70;61.50;;;;;;5059463;28;20099;-33
2021/11/30 06:55:40;;;;;;;8.63;4.30;;;5.80;61.80;;;;;;5059275;28;20063;-41
2021/11/30 06:58:06;;;;;;;12.77;4.85;;;5.80;61.70;;;;;;5059142;28;20432;-41
2021/11/30 07:00:32;;;;;;;9.05;4.70;;;5.80;61.90;;;;;;5059044;28;20033;-41
2021/11/30 07:02:58;;;;;;;12.38;4.82;;;5.80;61.90;;;;;;5058815;28;20416;-41
2021/11/30 07:05:31;;;;;;;8.30;5.05;;;5.80;61.70;;;;;;5058647;28;20036;-41
2021/11/30 07:08:12;;;;;;;7.88;4.68;;;5.80;62.00;;;;;;5058547;28;20037;-32
2021/11/30 07:10:46;;;;;;;8.60;4.03;;;5.80;62.00;;;;;;5058172;28;20087;-32
2021/11/30 07:15:58;;;;;;;6.95;4.70;;;5.80;61.80;;;;;;5058855;28;20069;-32
2021/11/30 07:18:25;;;;;;;9.48;5.07;;;5.80;61.70;;;;;;5058631;28;20048;-32
2021/11/30 07:20:52;;;;;;;8.77;4.90;;;5.80;62.40;;;;;;5058408;28;20325;-32
2021/11/30 07:23:18;;;;;;;29.95;6.95;;;5.80;61.90;;;;;;5055286;28;20021;-32
2021/11/30 07:25:44;;;;;;;7.53;4.90;;;5.90;62.10;;;;;;5058256;28;20041;-32
2021/11/30 07:28:11;;;;;;;9.90;5.50;;;5.90;62.10;;;;;;5057902;28;20103;-32
2021/11/30 07:30:37;;;;;;;17.42;6.82;;;5.90;62.10;;;;;;5057949;28;20029;-41
2021/11/30 07:33:03;;;;;;;18.48;5.43;;;6.00;62.10;;;;;;5057941;28;20035;-32
2021/11/30 07:35:29;;;;;;;9.90;5.20;;;6.00;62.30;;;;;;5056519;28;20473;-32
2021/11/30 07:37:55;;;;;;;15.57;5.00;;;6.00;62.30;;;;;;5056463;28;20039;-35
2021/11/30 07:40:22;;;;;;;13.10;5.65;;;6.10;62.10;;;;;;5057961;28;20040;-35
2021/11/30 07:42:48;;;;;;;10.95;5.45;;;6.10;62.30;;;;;;5057294;28;20032;-38
2021/11/30 07:45:14;;;;;;;12.60;4.95;;;6.10;61.80;;;;;;5057897;28;20048;-48
2021/11/30 07:47:41;;;;;;;10.23;4.25;;;6.10;61.60;;;;;;5057250;28;20111;-41
2021/11/30 07:50:08;;;;;;;41.38;21.73;;;6.10;61.40;;;;;;5057626;28;20416;-32
2021/11/30 07:52:42;;;;;;;7.65;4.38;;;6.10;61.50;;;;;;5056999;28;20057;-33
2021/11/30 07:55:11;;;;;;;11.73;5.28;;;6.10;61.50;;;;;;5056365;28;20107;-32
2021/11/30 07:57:37;;;;;;;10.55;4.70;;;6.10;61.30;;;;;;5056845;28;20033;-32
2021/11/30 08:00:06;;;;;;;10.35;4.97;;;6.10;61.20;;;;;;5057646;28;20056;-32
2021/11/30 08:02:32;;;;;;;10.88;5.45;;;6.10;61.20;;;;;;5056993;28;20037;-32
2021/11/30 08:04:58;;;;;;;11.45;4.63;;;6.20;61.20;;;;;;5057499;28;20063;-32
2021/11/30 08:07:23;;;;;;;11.18;4.38;;;6.20;60.80;;;;;;5056934;28;20448;-34
2021/11/30 08:09:50;;;;;;;8.32;4.68;;;6.20;60.70;;;;;;5056614;28;20056;-32
2021/11/30 08:12:16;;;;;;;6.30;4.10;;;6.20;60.80;;;;;;5057120;28;20029;-33
2021/11/30 08:14:42;;;;;;;10.43;3.83;;;6.20;60.60;;;;;;5057011;28;20025;-32
2021/11/30 08:17:19;;;;;;;20.95;6.75;;;6.20;60.40;;;;;;5056964;28;20212;-34
2021/11/30 08:19:47;;;;;;;15.13;7.28;;;6.30;60.60;;;;;;5056918;28;20323;-32
2021/11/30 08:22:14;;;;;;;5.93;3.85;;;6.30;60.40;;;;;;5056768;28;20320;-32
2021/11/30 08:24:40;;;;;;;6.03;4.03;;;6.30;59.90;;;;;;5057168;28;20427;-42
2021/11/30 08:27:06;;;;;;;4.07;3.08;;;6.30;59.50;;;;;;5056693;28;20409;-41
2021/11/30 08:29:35;;;;;;;6.00;3.83;;;6.30;59.10;;;;;;5056600;28;20037;-41
2021/11/30 08:32:01;;;;;;;8.45;3.22;;;6.30;59.10;;;;;;5056780;28;20025;-41
2021/11/30 08:34:27;;;;;;;12.00;3.05;;;6.30;58.50;;;;;;5056795;28;20037;-41
2021/11/30 08:36:53;;;;;;;6.78;2.88;;;6.30;58.10;;;;;;5056908;28;20055;-41
2021/11/30 08:39:20;;;;;;;16.33;3.40;;;6.30;57.90;;;;;;5056810;28;20035;-32
2021/11/30 08:41:45;;;;;;;21.40;4.07;;;6.30;57.50;;;;;;5056566;28;20024;-32
2021/11/30 08:44:11;;;;;;;7.35;3.03;;;6.30;58.00;;;;;;5056622;28;20107;-41
2021/11/30 08:46:37;;;;;;;8.90;3.22;;;6.40;57.80;;;;;;5056271;28;20044;-41
2021/11/30 08:49:04;;;;;;;9.18;2.85;;;6.40;58.30;;;;;;5054552;28;20037;-32
2021/11/30 08:51:30;;;;;;;5.90;2.97;;;6.50;57.90;;;;;;5054781;28;20064;-35
2021/11/30 08:53:56;;;;;;;6.45;3.30;;;6.50;57.90;;;;;;5056552;28;20033;-47
2021/11/30 08:56:21;;;;;;;6.95;3.03;;;6.50;57.20;;;;;;5056195;28;20516;-35
2021/11/30 08:58:51;;;;;;;4.10;2.42;;;6.50;57.20;;;;;;5056452;28;20025;-47
2021/11/30 09:01:18;;;;;;;4.88;3.25;;;6.50;56.90;;;;;;5056516;28;20326;-35
2021/11/30 09:03:43;;;;;;;8.73;3.13;;;6.50;56.80;;;;;;5052523;28;20041;-37
2021/11/30 09:06:09;;;;;;;10.73;2.60;;;6.50;57.00;;;;;;5054859;28;20035;-35
2021/11/30 09:08:35;;;;;;;5.30;2.60;;;6.50;56.40;;;;;;5053214;28;20075;-34
2021/11/30 09:11:01;;;;;;;6.65;2.88;;;6.50;56.80;;;;;;5056015;28;20044;-37
2021/11/30 09:13:27;;;;;;;7.93;3.33;;;6.50;56.60;;;;;;5055673;28;20108;-38
2021/11/30 09:15:52;;;;;;;6.45;2.97;;;6.60;56.10;;;;;;5055914;28;20025;-48
2021/11/30 09:18:18;;;;;;;5.30;2.90;;;6.60;56.70;;;;;;5055570;28;20231;-47
2021/11/30 09:20:44;;;;;;;7.43;3.00;;;6.60;55.70;;;;;;5056161;28;20043;-48
2021/11/30 09:23:11;;;;;;;4.13;2.95;;;6.50;55.20;;;;;;5055572;28;20033;-48
2021/11/30 09:25:36;;;;;;;6.20;3.97;;;6.50;55.70;;;;;;5056174;28;20098;-47
2021/11/30 09:28:03;;;;;;;4.55;3.42;;;6.50;56.30;;;;;;5055809;28;20025;-47
2021/11/30 09:30:33;;;;;;;5.18;3.63;;;6.50;56.40;;;;;;5056084;28;20041;-47
2021/11/30 09:32:59;;;;;;;6.53;3.40;;;6.60;56.00;;;;;;5055738;28;20033;-46
2021/11/30 09:35:25;;;;;;;5.30;3.47;;;6.60;56.00;;;;;;5056423;28;20037;-47
2021/11/30 09:37:53;;;;;;;23.92;5.18;;;6.60;56.30;;;;;;5055674;28;20327;-38
2021/11/30 09:40:23;;;;;;;13.18;4.38;;;6.60;56.40;;;;;;5056156;28;20041;-36
2021/11/30 09:42:50;;;;;;;7.03;3.80;;;6.60;56.80;;;;;;5055694;28;20164;-34
2021/11/30 09:45:16;;;;;;;5.60;3.50;;;6.60;56.10;;;;;;5055819;28;20036;-35
2021/11/30 09:47:43;;;;;;;15.20;4.03;;;6.70;56.10;;;;;;5055487;28;20410;-37
2021/11/30 09:50:15;;;;;;;8.70;4.18;;;6.70;56.50;;;;;;5055945;28;20072;-47
2021/11/30 09:52:41;;;;;;;11.38;3.95;;;6.70;56.70;;;;;;5055260;28;20039;-47
2021/11/30 09:55:12;;;;;;;9.82;3.60;;;6.70;56.70;;;;;;5055568;28;20057;-47
2021/11/30 09:57:38;;;;;;;6.40;3.80;;;6.80;56.70;;;;;;5054879;28;20036;-47
2021/11/30 10:00:07;;;;;;;30.30;4.80;;;6.80;56.50;;;;;;5054430;28;20044;-34
2021/11/30 10:02:33;;;;;;;6.85;4.20;;;6.80;56.50;;;;;;5054652;28;20033;-47
2021/11/30 10:04:59;;;;;;;17.95;4.80;;;6.80;56.30;;;;;;5055681;28;20040;-47
2021/11/30 10:07:45;;;;;;;11.40;3.90;;;6.80;56.10;;;;;;5055239;28;20025;-38
2021/11/30 10:10:21;;;;;;;5.57;3.58;;;6.80;55.80;;;;;;5055099;28;20072;-47
2021/11/30 10:13:09;;;;;;;9.00;4.45;;;6.80;56.00;;;;;;5055260;28;20041;-47
2021/11/30 10:15:52;;;;;;;7.40;4.43;;;6.80;56.00;;;;;;5054570;28;20028;-47
2021/11/30 10:18:25;;;;;;;11.45;4.97;;;6.80;55.80;;;;;;5054876;28;20036;-35
2021/11/30 10:21:08;;;;;;;17.33;4.53;;;6.80;56.10;;;;;;5055470;28;20029;-47
2021/11/30 10:24:02;;;;;;;10.85;4.00;;;6.80;56.00;;;;;;5054997;28;20107;-36
2021/11/30 10:26:33;;;;;;;7.07;3.95;;;6.80;56.30;;;;;;5055338;28;20037;-35
2021/11/30 10:29:04;;;;;;;21.55;6.13;;;6.80;56.30;;;;;;5055762;28;20343;-35
2021/11/30 10:31:33;;;;;;;;;;;6.90;56.60;;;;;;5056029;28;20336;-36
2021/11/30 10:34:00;;;;;;;6.38;3.80;;;6.90;56.70;;;;;;5055339;28;20004;-35
2021/11/30 10:36:26;;;;;;;6.15;4.07;;;6.80;56.50;;;;;;5054924;28;20087;-47
2021/11/30 10:38:52;;;;;;;7.05;3.20;;;6.80;56.30;;;;;;5054499;28;20425;-35
2021/11/30 10:41:25;;;;;;;6.97;3.50;;;6.80;56.50;;;;;;5055206;28;20504;-35
2021/11/30 10:43:58;;;;;;;11.77;5.70;;;6.90;56.30;;;;;;5055443;28;20029;-36
2021/11/30 10:46:25;;;;;;;9.40;4.10;;;6.90;56.60;;;;;;5055110;28;20123;-35
2021/11/30 10:48:51;;;;;;;13.15;4.60;;;6.90;56.20;;;;;;5055276;28;20021;-47
2021/11/30 10:51:17;;;;;;;7.68;3.30;;;6.90;56.30;;;;;;5055124;28;20057;-35
2021/11/30 10:53:45;;;;;;;14.45;3.83;;;6.90;55.60;;;;;;5054889;28;20029;-47
2021/11/30 10:56:11;;;;;;;9.48;3.38;;;6.90;55.20;;;;;;5055338;28;20043;-38
2021/11/30 10:58:40;;;;;;;7.57;3.22;;;6.80;55.30;;;;;;5054895;28;20101;-34
2021/11/30 11:01:20;;;;;;;6.03;3.45;;;6.80;55.10;;;;;;5055002;28;20330;-35
2021/11/30 11:04:03;;;;;;;5.50;3.97;;;6.80;54.80;;;;;;5055107;28;20033;-47
2021/11/30 11:06:30;;;;;;;6.28;3.30;;;6.80;54.90;;;;;;5054930;28;20037;-35
2021/11/30 11:09:00;;;;;;;5.22;3.40;;;6.70;54.40;;;;;;5054479;28;20041;-35
2021/11/30 11:11:29;;;;;;;4.22;2.97;;;6.70;55.20;;;;;;5054820;28;20029;-34
2021/11/30 11:13:54;;;;;;;7.32;3.53;;;6.70;54.80;;;;;;5057283;28;20031;-47
2021/11/30 11:16:35;;;;;;;7.43;3.80;;;6.60;54.90;;;;;;5058620;28;20025;-47
2021/11/30 11:19:04;;;;;;;3.92;2.95;;;6.60;55.30;;;;;;5058817;28;20026;-34
2021/11/30 11:21:31;;;;;;;11.20;4.00;;;6.60;55.00;;;;;;5058402;28;20052;-47
2021/11/30 11:24:14;;;;;;;12.43;3.92;;;6.50;55.20;;;;;;5058314;28;20063;-47
2021/11/30 11:26:46;;;;;;;5.72;3.70;;;6.50;55.60;;;;;;5058176;28;20120;-34
2021/11/30 11:29:16;;;;;;;12.80;4.10;;;6.50;55.60;;;;;;5058446;28;20401;-34
2021/11/30 11:31:45;;;;;;;5.00;3.28;;;6.50;56.00;;;;;;5058385;28;20116;-36
2021/11/30 11:34:13;;;;;;;6.93;3.83;;;6.60;55.90;;;;;;5058504;28;20032;-47
2021/11/30 11:36:42;;;;;;;10.82;4.53;;;6.50;55.50;;;;;;5057944;28;20028;-47
2021/11/30 11:39:08;;;;;;;6.43;3.60;;;6.50;55.70;;;;;;5058667;28;20096;-38
2021/11/30 11:41:33;;;;;;;5.13;3.58;;;6.50;56.00;;;;;;5058128;28;20421;-36
2021/11/30 11:43:59;;;;;;;19.05;4.50;;;6.60;56.10;;;;;;5048908;28;20079;-47
2021/11/30 11:46:32;;;;;;;9.68;3.90;;;6.60;56.10;;;;;;5037902;28;20025;-35
2021/11/30 11:49:00;;;;;;;7.95;5.43;;;6.60;55.70;;;;;;5037868;28;20108;-34
2021/11/30 11:51:47;;;;;;;9.68;3.90;;;6.60;56.00;;;;;;5037342;28;20034;-47
2021/11/30 11:54:31;;;;;;;6.35;3.67;;;6.60;56.20;;;;;;5037659;28;20030;-45
2021/11/30 11:57:05;;;;;;;12.73;3.92;;;6.60;56.00;;;;;;5037776;28;20025;-45
2021/11/30 12:00:13;;;;;;;10.88;5.00;;;6.60;56.10;;;;;;5037565;28;20038;-35
2021/11/30 12:02:50;;;;;;;9.98;3.40;;;6.70;56.10;;;;;;5037766;28;20329;-36
2021/11/30 12:05:16;;;;;;;16.40;5.68;;;6.60;55.30;;;;;;5037545;28;20318;-34
2021/11/30 12:08:01;;;;;;;15.45;4.65;;;6.60;55.70;;;;;;5037572;28;20029;-34
2021/11/30 12:10:32;;;;;;;6.75;3.10;;;6.60;55.60;;;;;;5056980;28;20372;-47
2021/11/30 12:13:00;;;;;;;;;;;6.60;55.40;;;;;;5057801;28;20025;-35
2021/11/30 12:16:09;;;;;;;27.25;5.28;;;6.50;55.70;;;;;;5057059;28;19909;-47
2021/11/30 12:18:35;;;;;;;5.57;3.40;;;6.50;55.20;;;;;;5054698;28;20029;-35
2021/11/30 12:21:17;;;;;;;6.93;2.70;;;6.50;55.10;;;;;;5040361;28;20033;-47
2021/11/30 12:23:48;;;;;;;7.55;3.45;;;6.50;54.80;;;;;;5036702;28;20405;-37
2021/11/30 12:26:34;;;;;;;6.00;3.17;;;6.50;54.80;;;;;;5037089;28;20108;-47
2021/11/30 12:29:03;;;;;;;6.35;3.10;;;6.50;54.30;;;;;;5037424;28;20033;-38
2021/11/30 12:31:39;;;;;;;5.68;3.10;;;6.50;54.30;;;;;;5036973;28;20431;-36
2021/11/30 12:34:07;;;;;;;6.00;2.70;;;6.50;54.40;;;;;;5035992;28;20029;-46
2021/11/30 12:36:36;;;;;;;9.00;3.40;;;6.50;53.50;;;;;;5037210;28;20041;-47
2021/11/30 12:39:05;;;;;;;4.40;2.65;;;6.40;53.10;;;;;;5036925;28;20061;-47
2021/11/30 12:41:42;;;;;;;4.55;2.65;;;6.40;53.00;;;;;;5036661;28;20068;-35
2021/11/30 12:44:17;;;;;;;4.85;2.63;;;6.40;52.90;;;;;;5037027;28;20433;-47
2021/11/30 12:46:46;;;;;;;4.30;2.72;;;6.40;53.00;;;;;;5036685;28;20033;-47
2021/11/30 12:49:28;;;;;;;8.02;3.00;;;6.40;53.10;;;;;;5036802;28;20033;-47
2021/11/30 12:52:23;;;;;;;4.63;2.70;;;6.40;53.40;;;;;;5036927;28;20038;-34
2021/11/30 12:55:11;;;;;;;51.10;5.85;;;6.30;53.30;;;;;;5036984;28;20022;-36
2021/11/30 12:57:37;;;;;;;9.02;2.97;;;6.30;53.80;;;;;;5036206;28;20029;-36
2021/11/30 13:00:30;;;;;;;6.25;2.80;;;6.30;53.90;;;;;;5036839;28;20407;-48
2021/11/30 13:03:21;;;;;;;12.95;3.30;;;6.30;53.80;;;;;;5035933;28;20148;-47
2021/11/30 13:05:56;;;;;;;6.75;3.13;;;6.30;53.80;;;;;;5042037;28;20043;-47
2021/11/30 13:08:23;;;;;;;10.00;2.95;;;6.30;53.80;;;;;;5055912;28;20049;-36
2021/11/30 13:10:55;;;;;;;6.45;3.00;;;6.30;53.80;;;;;;5056330;28;20126;-47
2021/11/30 13:13:29;;;;;;;12.65;3.83;;;6.20;54.00;;;;;;5055669;28;20078;-36